Time;durP1;ratioP1;P1;durP2;ratioP2;P2;SDS_P1;SDS_P2;PMS_P1;PMS_P2;Temp;Humidity;BMP_temperature;BMP_pressure;BME280_temperature;BME280_humidity;BME280_pressure;Samples;Min_cycle;Max_cycle;Signal;HPM_P1;HPM_P2
2022/03/28 00:01:54;;;;;;;30.52;15.70;;;11.60;78.00;;;;;;5054401;28;20037;-69
2022/03/28 00:04:20;;;;;;;26.60;15.25;;;11.70;76.80;;;;;;5054388;28;20029;-71
2022/03/28 00:06:46;;;;;;;28.65;16.10;;;12.00;76.50;;;;;;5054457;28;20041;-71
2022/03/28 00:09:12;;;;;;;23.58;14.13;;;11.70;77.40;;;;;;5053745;28;20075;-73
2022/03/28 00:11:38;;;;;;;31.42;16.73;;;11.70;76.80;;;;;;5034816;28;20064;-68
2022/03/28 00:14:04;;;;;;;29.90;16.05;;;11.60;76.70;;;;;;5035175;28;20076;-69
2022/03/28 00:16:30;;;;;;;31.25;17.05;;;11.70;76.90;;;;;;5034898;28;20045;-68
2022/03/28 00:18:56;;;;;;;34.75;16.17;;;11.80;76.20;;;;;;5034831;28;20029;-73
2022/03/28 00:21:22;;;;;;;31.02;16.92;;;12.00;75.90;;;;;;5035152;28;20401;-73
2022/03/28 00:23:48;;;;;;;31.67;17.10;;;12.10;75.40;;;;;;5035288;28;20044;-73
2022/03/28 00:26:14;;;;;;;28.63;16.48;;;12.10;75.30;;;;;;5034889;28;20041;-73
2022/03/28 00:28:40;;;;;;;30.88;16.50;;;12.00;75.50;;;;;;5034880;28;20090;-70
2022/03/28 00:31:05;;;;;;;30.20;18.05;;;11.60;77.40;;;;;;5017031;28;20098;-73
2022/03/28 00:33:31;;;;;;;33.58;19.15;;;11.20;77.80;;;;;;5034793;28;20073;-68
2022/03/28 00:35:57;;;;;;;29.50;17.02;;;11.40;77.40;;;;;;5034818;28;20512;-72
2022/03/28 00:38:23;;;;;;;36.05;18.23;;;11.60;77.10;;;;;;5034932;28;20444;-68
2022/03/28 00:40:49;;;;;;;35.42;19.15;;;11.60;77.30;;;;;;5035041;28;20039;-69
2022/03/28 00:43:15;;;;;;;31.58;18.17;;;11.20;78.70;;;;;;5035013;28;20231;-68
2022/03/28 00:45:42;;;;;;;31.85;18.83;;;11.20;78.70;;;;;;5034613;28;20508;-72
2022/03/28 00:48:09;;;;;;;34.33;19.02;;;11.20;78.60;;;;;;5032255;28;20524;-70
2022/03/28 00:50:35;;;;;;;37.15;19.15;;;11.30;78.70;;;;;;5034448;28;20404;-68
2022/03/28 00:53:04;;;;;;;33.90;18.27;;;11.20;78.60;;;;;;5034417;28;20056;-73
2022/03/28 00:55:30;;;;;;;30.50;17.65;;;11.30;78.60;;;;;;5034003;28;20044;-70
2022/03/28 00:57:56;;;;;;;40.42;20.20;;;11.40;78.20;;;;;;5032352;28;20060;-68
2022/03/28 01:00:22;;;;;;;36.83;19.08;;;11.60;77.30;;;;;;5034161;28;20049;-68
2022/03/28 01:02:48;;;;;;;35.47;18.60;;;11.70;77.00;;;;;;5034287;28;20039;-70
2022/03/28 01:05:14;;;;;;;34.47;18.70;;;11.60;77.20;;;;;;5034252;28;20585;-68
2022/03/28 01:07:41;;;;;;;35.13;19.85;;;11.50;77.70;;;;;;5033879;28;20077;-68
2022/03/28 01:10:11;;;;;;;34.42;18.50;;;11.20;78.20;;;;;;5033679;28;20041;-69
2022/03/28 01:12:42;;;;;;;32.80;18.02;;;11.30;78.00;;;;;;5020779;28;20095;-68
2022/03/28 01:15:13;;;;;;;31.48;18.25;;;11.40;77.70;;;;;;5034010;28;20095;-68
2022/03/28 01:20:25;;;;;;;33.47;18.98;;;11.50;77.40;;;;;;5033992;28;20095;-73
2022/03/28 01:22:51;;;;;;;34.70;19.02;;;11.60;77.20;;;;;;5033640;28;20037;-73
2022/03/28 01:25:24;;;;;;;31.70;18.30;;;11.60;77.00;;;;;;5033531;28;20125;-69
2022/03/28 01:27:52;;;;;;;33.92;17.25;;;11.60;77.10;;;;;;5033937;28;20703;-70
2022/03/28 01:30:22;;;;;;;31.05;17.60;;;11.60;77.40;;;;;;5033860;28;20087;-68
2022/03/28 01:32:49;;;;;;;31.65;17.73;;;11.50;77.40;;;;;;5033796;28;20417;-68
2022/03/28 01:35:29;;;;;;;37.67;19.55;;;11.40;78.10;;;;;;5034337;28;20039;-69
2022/03/28 01:37:55;;;;;;;33.78;18.83;;;11.40;77.70;;;;;;5051061;28;20047;-68
2022/03/28 01:40:21;;;;;;;37.28;19.35;;;11.20;78.00;;;;;;5035597;28;20124;-72
2022/03/28 01:42:49;;;;;;;32.20;17.75;;;11.10;78.30;;;;;;5033321;28;20052;-69
2022/03/28 01:45:15;;;;;;;32.58;18.50;;;10.90;78.80;;;;;;5033705;28;20048;-73
2022/03/28 01:47:41;;;;;;;29.80;17.55;;;10.50;79.90;;;;;;5033644;28;20088;-71
2022/03/28 01:50:07;;;;;;;28.98;15.80;;;10.10;82.20;;;;;;5033479;28;20421;-71
2022/03/28 01:52:33;;;;;;;34.80;18.63;;;9.70;83.60;;;;;;5033472;28;20036;-68
2022/03/28 01:54:59;;;;;;;33.30;18.42;;;9.60;84.20;;;;;;5033421;28;20040;-72
2022/03/28 01:57:25;;;;;;;33.72;17.65;;;9.60;84.00;;;;;;5033505;28;20048;-73
2022/03/28 01:59:51;;;;;;;31.20;18.52;;;9.90;82.80;;;;;;5033364;28;20528;-68
2022/03/28 02:02:17;;;;;;;29.42;16.75;;;10.10;81.70;;;;;;5032958;28;20067;-73
2022/03/28 02:04:42;;;;;;;23.85;15.38;;;10.20;80.80;;;;;;5033047;28;20087;-69
2022/03/28 02:07:08;;;;;;;33.60;16.15;;;10.30;79.90;;;;;;5033189;28;20061;-68
2022/03/28 02:09:34;;;;;;;25.25;14.60;;;10.60;78.90;;;;;;5033424;28;20029;-68
2022/03/28 02:12:00;;;;;;;28.65;15.75;;;10.80;78.10;;;;;;5033344;28;20041;-72
2022/03/28 02:14:25;;;;;;;29.85;15.10;;;10.90;78.20;;;;;;5033216;28;20477;-69
2022/03/28 02:16:51;;;;;;;30.35;16.23;;;10.70;78.20;;;;;;5033067;28;20047;-72
2022/03/28 02:19:17;;;;;;;28.90;16.58;;;10.70;78.60;;;;;;5033155;28;20095;-72
2022/03/28 02:21:43;;;;;;;28.73;16.45;;;10.70;78.60;;;;;;5032839;28;20047;-73
2022/03/28 02:24:08;;;;;;;29.55;16.85;;;10.70;78.60;;;;;;5032909;28;20037;-68
2022/03/28 02:26:34;;;;;;;29.15;15.18;;;10.70;78.50;;;;;;5032954;28;20052;-68
2022/03/28 02:29:00;;;;;;;28.95;16.73;;;10.60;78.60;;;;;;5033089;28;20045;-68
2022/03/28 02:31:26;;;;;;;26.73;15.27;;;10.70;78.20;;;;;;5032808;28;20042;-72
2022/03/28 02:33:51;;;;;;;29.05;16.02;;;10.90;77.80;;;;;;5032038;28;20041;-73
2022/03/28 02:36:17;;;;;;;28.50;16.08;;;10.90;77.60;;;;;;5029917;28;20461;-68
2022/03/28 02:38:43;;;;;;;30.58;15.80;;;10.90;77.90;;;;;;5031613;28;20033;-68
2022/03/28 02:41:09;;;;;;;33.63;16.98;;;11.00;78.00;;;;;;5031953;28;20045;-70
2022/03/28 02:43:34;;;;;;;30.15;16.30;;;11.00;77.60;;;;;;5032982;28;20049;-69
2022/03/28 02:46:00;;;;;;;32.97;16.85;;;11.10;77.60;;;;;;5032604;28;20033;-68
2022/03/28 02:48:26;;;;;;;33.30;17.20;;;11.00;77.30;;;;;;5032829;28;20046;-72
2022/03/28 02:50:52;;;;;;;31.73;16.67;;;10.80;77.90;;;;;;5028914;28;20041;-72
2022/03/28 02:53:18;;;;;;;30.67;16.27;;;10.90;77.80;;;;;;5030584;28;20047;-68
2022/03/28 02:55:43;;;;;;;27.38;15.07;;;10.80;77.70;;;;;;5032013;28;20029;-73
2022/03/28 02:58:09;;;;;;;26.60;14.50;;;10.90;77.30;;;;;;5032810;28;20148;-73
2022/03/28 03:00:35;;;;;;;28.95;15.75;;;11.00;77.10;;;;;;5032753;28;20037;-71
2022/03/28 03:03:01;;;;;;;25.40;15.35;;;11.00;77.00;;;;;;5032714;28;20068;-69
2022/03/28 03:05:27;;;;;;;29.00;16.42;;;11.00;76.70;;;;;;5032709;28;20025;-68
2022/03/28 03:07:53;;;;;;;29.58;16.38;;;10.70;78.30;;;;;;5032447;28;20053;-68
2022/03/28 03:10:18;;;;;;;29.38;16.20;;;10.10;79.40;;;;;;5032807;28;20041;-69
2022/03/28 03:12:44;;;;;;;27.95;15.10;;;10.40;78.40;;;;;;5032387;28;20048;-68
2022/03/28 03:15:10;;;;;;;32.53;16.77;;;10.50;78.10;;;;;;5032345;28;20448;-70
2022/03/28 03:17:36;;;;;;;28.02;15.30;;;10.80;77.40;;;;;;5032539;28;20436;-73
2022/03/28 03:20:06;;;;;;;33.10;16.80;;;10.90;77.10;;;;;;5032477;28;20489;-72
2022/03/28 03:22:32;;;;;;;27.67;14.90;;;10.70;77.60;;;;;;5032686;28;20393;-68
2022/03/28 03:24:58;;;;;;;29.08;15.10;;;10.70;77.90;;;;;;5032628;28;20037;-74
2022/03/28 03:27:23;;;;;;;31.45;16.65;;;10.60;78.30;;;;;;5032220;28;20056;-73
2022/03/28 03:29:50;;;;;;;32.28;16.67;;;10.80;77.70;;;;;;5032398;28;20037;-68
2022/03/28 03:32:15;;;;;;;32.78;17.77;;;11.00;77.00;;;;;;5032720;28;20128;-72
2022/03/28 03:34:41;;;;;;;25.98;15.50;;;11.10;76.80;;;;;;5032448;28;20128;-69
2022/03/28 03:37:08;;;;;;;32.97;16.50;;;10.60;78.70;;;;;;5032092;28;20099;-69
2022/03/28 03:39:35;;;;;;;28.67;16.38;;;10.50;79.00;;;;;;5031952;28;20116;-70
2022/03/28 03:42:01;;;;;;;32.72;16.90;;;10.40;79.70;;;;;;5031934;28;20037;-73
2022/03/28 03:44:27;;;;;;;31.42;17.52;;;10.50;78.80;;;;;;5032272;28;20124;-68
2022/03/28 03:46:53;;;;;;;30.20;16.17;;;10.40;78.70;;;;;;5032964;28;20075;-72
2022/03/28 03:49:19;;;;;;;28.80;14.52;;;10.60;78.40;;;;;;5035458;28;20088;-68
2022/03/28 03:51:45;;;;;;;31.65;14.95;;;10.60;77.60;;;;;;5035759;28;20044;-73
2022/03/28 03:54:11;;;;;;;27.02;15.73;;;10.60;77.20;;;;;;5035987;28;20037;-68
2022/03/28 03:56:37;;;;;;;28.20;15.82;;;10.50;78.10;;;;;;5035704;28;20041;-68
2022/03/28 03:59:04;;;;;;;29.58;16.70;;;10.40;78.40;;;;;;5035541;28;20560;-68
2022/03/28 04:01:30;;;;;;;28.95;16.15;;;10.50;78.50;;;;;;5035548;28;20065;-73
2022/03/28 04:03:56;;;;;;;26.40;16.52;;;10.60;78.00;;;;;;5035416;28;20128;-73
2022/03/28 04:06:22;;;;;;;27.23;15.88;;;10.70;77.60;;;;;;5035326;28;20056;-68
2022/03/28 04:08:48;;;;;;;28.40;15.85;;;10.60;78.30;;;;;;5035210;28;20045;-73
2022/03/28 04:11:15;;;;;;;32.58;16.17;;;10.30;78.40;;;;;;5035196;28;20083;-67
2022/03/28 04:13:40;;;;;;;26.45;14.38;;;10.00;79.20;;;;;;5035268;28;20497;-68
2022/03/28 04:16:06;;;;;;;34.10;15.93;;;10.00;79.00;;;;;;5035222;28;20030;-70
2022/03/28 04:18:32;;;;;;;21.75;13.55;;;10.00;79.10;;;;;;5035030;28;20047;-72
2022/03/28 04:20:58;;;;;;;24.83;14.48;;;10.20;78.10;;;;;;5035280;28;20049;-68
2022/03/28 04:23:25;;;;;;;23.98;13.60;;;10.30;77.50;;;;;;5035380;28;20045;-68
2022/03/28 04:25:51;;;;;;;26.90;15.45;;;10.40;77.40;;;;;;5017185;28;20120;-71
2022/03/28 04:28:17;;;;;;;25.15;14.05;;;10.30;77.60;;;;;;5035040;28;20052;-73
2022/03/28 04:30:43;;;;;;;30.58;16.25;;;10.30;77.70;;;;;;5035098;28;20033;-73
2022/03/28 04:33:09;;;;;;;31.33;15.27;;;10.40;77.90;;;;;;5035384;28;20045;-69
2022/03/28 04:35:41;;;;;;;29.48;16.55;;;10.40;77.70;;;;;;5034812;28;20088;-75
2022/03/28 04:38:09;;;;;;;29.67;16.02;;;10.40;77.70;;;;;;5034745;28;20061;-75
2022/03/28 04:40:36;;;;;;;29.45;15.15;;;10.30;78.00;;;;;;5034199;28;20047;-73
2022/03/28 04:43:02;;;;;;;29.45;15.90;;;10.20;78.30;;;;;;5034413;28;20037;-75
2022/03/28 04:45:28;;;;;;;29.80;16.23;;;10.20;78.30;;;;;;5034075;28;20590;-75
2022/03/28 04:47:54;;;;;;;30.30;16.05;;;10.20;78.20;;;;;;5034746;28;20395;-72
2022/03/28 04:50:20;;;;;;;27.77;15.68;;;10.30;77.50;;;;;;5053979;28;20049;-74
2022/03/28 04:52:46;;;;;;;31.75;15.68;;;10.40;78.60;;;;;;5053697;28;20043;-74
2022/03/28 04:55:12;;;;;;;25.88;14.93;;;10.20;78.80;;;;;;5054548;28;20484;-74
2022/03/28 04:57:39;;;;;;;31.52;16.05;;;10.20;78.90;;;;;;5054064;28;20040;-71
2022/03/28 05:00:06;;;;;;;28.73;15.70;;;10.10;79.60;;;;;;5053569;28;20052;-76
2022/03/28 05:02:34;;;;;;;26.55;15.32;;;9.90;79.90;;;;;;5054198;28;20036;-74
2022/03/28 05:05:00;;;;;;;30.73;16.00;;;9.90;79.20;;;;;;5053289;28;20040;-74
2022/03/28 05:07:27;;;;;;;29.48;15.27;;;9.90;79.00;;;;;;5053872;28;20127;-69
2022/03/28 05:09:54;;;;;;;30.08;16.27;;;9.70;79.70;;;;;;5053936;28;20052;-75
2022/03/28 05:12:20;;;;;;;35.47;17.73;;;9.80;80.40;;;;;;5053952;28;20575;-74
2022/03/28 05:14:47;;;;;;;32.30;16.45;;;9.60;80.10;;;;;;5054199;28;20040;-74
2022/03/28 05:17:14;;;;;;;28.90;15.52;;;9.70;80.40;;;;;;5053703;28;20037;-71
2022/03/28 05:19:39;;;;;;;28.27;15.50;;;9.30;81.00;;;;;;5036316;28;20033;-74
2022/03/28 05:22:05;;;;;;;28.80;15.13;;;9.10;81.50;;;;;;5034085;28;20107;-72
2022/03/28 05:24:31;;;;;;;27.27;15.70;;;8.70;82.90;;;;;;5036570;28;20095;-76
2022/03/28 05:26:57;;;;;;;25.88;14.77;;;8.50;83.80;;;;;;5033998;28;20505;-75
2022/03/28 05:29:24;;;;;;;28.63;14.32;;;9.10;81.50;;;;;;5033993;28;20064;-74
2022/03/28 05:31:50;;;;;;;26.25;14.23;;;9.10;83.00;;;;;;5033436;28;20405;-67
2022/03/28 05:34:16;;;;;;;26.65;14.90;;;9.20;81.30;;;;;;5033260;28;20053;-75
2022/03/28 05:36:43;;;;;;;30.50;16.27;;;9.10;81.30;;;;;;5032943;28;20501;-73
2022/03/28 05:39:09;;;;;;;27.38;15.68;;;9.40;80.70;;;;;;5033242;28;20127;-73
2022/03/28 05:41:35;;;;;;;26.58;15.02;;;9.50;80.70;;;;;;5033855;28;20120;-73
2022/03/28 05:44:01;;;;;;;27.75;14.60;;;9.30;80.90;;;;;;5033983;28;20378;-73
2022/03/28 05:46:27;;;;;;;30.73;16.60;;;9.10;82.60;;;;;;5033595;28;20038;-66
2022/03/28 05:48:54;;;;;;;27.13;14.48;;;9.10;81.60;;;;;;5042024;28;20527;-71
2022/03/28 05:51:20;;;;;;;24.55;12.55;;;9.50;80.20;;;;;;5053287;28;20133;-73
2022/03/28 05:53:46;;;;;;;26.13;12.65;;;9.40;79.30;;;;;;5053308;28;20516;-74
2022/03/28 05:56:12;;;;;;;28.52;13.02;;;9.50;79.00;;;;;;5053366;28;20048;-70
2022/03/28 05:58:37;;;;;;;23.73;12.48;;;9.60;78.50;;;;;;5053415;28;20416;-74
2022/03/28 06:01:03;;;;;;;25.58;13.55;;;9.60;78.40;;;;;;5053326;28;20048;-74
2022/03/28 06:03:29;;;;;;;27.50;13.32;;;9.50;78.70;;;;;;5053249;28;20131;-70
2022/03/28 06:05:55;;;;;;;20.00;11.70;;;9.30;79.30;;;;;;5053015;28;20063;-74
2022/03/28 06:08:21;;;;;;;21.13;12.02;;;9.30;78.90;;;;;;5052902;28;20057;-74
2022/03/28 06:10:47;;;;;;;24.00;12.07;;;9.30;78.50;;;;;;5052621;28;20033;-72
2022/03/28 06:13:13;;;;;;;23.15;11.48;;;9.50;78.20;;;;;;5053208;28;20048;-70
2022/03/28 06:15:39;;;;;;;22.63;12.00;;;9.70;77.30;;;;;;5053203;28;20037;-68
2022/03/28 06:18:06;;;;;;;19.85;9.95;;;9.80;77.00;;;;;;5042342;28;20401;-74
2022/03/28 06:20:32;;;;;;;21.83;11.40;;;9.90;76.60;;;;;;5030363;28;20103;-71
2022/03/28 06:22:59;;;;;;;23.67;11.40;;;9.90;77.60;;;;;;5032318;28;20041;-68
2022/03/28 06:25:25;;;;;;;25.10;12.00;;;9.90;76.80;;;;;;5032296;28;20091;-69
2022/03/28 06:27:50;;;;;;;21.27;10.82;;;9.90;77.70;;;;;;5031030;28;20061;-70
2022/03/28 06:30:16;;;;;;;28.13;11.65;;;9.60;78.30;;;;;;5031486;28;20072;-75
2022/03/28 06:32:42;;;;;;;20.73;10.75;;;9.70;78.90;;;;;;5031957;28;20041;-76
2022/03/28 06:35:09;;;;;;;21.60;10.52;;;9.80;78.00;;;;;;5032227;28;20124;-76
2022/03/28 06:37:35;;;;;;;20.77;10.18;;;10.00;77.20;;;;;;5033198;28;20037;-76
2022/03/28 06:40:03;;;;;;;20.05;10.32;;;10.30;76.60;;;;;;5033034;28;20048;-80
2022/03/28 06:42:33;;;;;;;21.70;10.07;;;10.30;76.60;;;;;;5033124;28;20508;-75
2022/03/28 06:44:59;;;;;;;17.98;9.57;;;10.40;75.70;;;;;;5032915;28;20053;-71
2022/03/28 06:47:25;;;;;;;16.48;9.25;;;10.70;75.10;;;;;;5032544;28;20049;-79
2022/03/28 06:49:51;;;;;;;20.25;10.20;;;11.00;74.50;;;;;;5032597;28;20485;-74
2022/03/28 06:52:17;;;;;;;16.25;9.60;;;11.40;74.90;;;;;;5031379;28;20033;-73
2022/03/28 06:54:43;;;;;;;27.17;10.48;;;11.80;74.40;;;;;;5030020;28;20033;-75
2022/03/28 06:57:09;;;;;;;21.30;10.57;;;12.20;76.80;;;;;;5030745;28;20527;-69
2022/03/28 06:59:35;;;;;;;19.65;9.75;;;12.40;77.80;;;;;;5032313;28;20041;-71
2022/03/28 07:02:01;;;;;;;17.45;10.48;;;12.80;79.20;;;;;;5032649;28;20080;-73
2022/03/28 07:04:26;;;;;;;23.70;10.90;;;13.10;77.90;;;;;;5032310;28;20103;-73
2022/03/28 07:06:52;;;;;;;20.65;10.63;;;13.20;75.50;;;;;;5031327;28;20045;-73
2022/03/28 07:09:18;;;;;;;22.63;10.82;;;13.30;76.00;;;;;;5031697;28;20041;-69
2022/03/28 07:11:45;;;;;;;24.20;11.18;;;13.20;74.10;;;;;;5032195;28;20079;-74
2022/03/28 07:14:11;;;;;;;29.55;15.50;;;13.30;75.30;;;;;;5032493;28;20045;-73
2022/03/28 07:16:37;;;;;;;30.00;14.50;;;13.60;78.60;;;;;;5032521;28;20037;-73
2022/03/28 07:19:04;;;;;;;36.63;22.45;;;13.80;76.50;;;;;;5031555;28;20059;-68
2022/03/28 07:21:31;;;;;;;42.35;25.25;;;13.90;79.80;;;;;;5032597;28;20037;-73
2022/03/28 07:23:57;;;;;;;40.17;24.55;;;14.20;78.00;;;;;;5036554;28;20363;-73
2022/03/28 07:26:23;;;;;;;30.63;15.93;;;14.30;78.80;;;;;;5036264;28;20034;-73
2022/03/28 07:28:49;;;;;;;25.02;13.27;;;14.30;80.30;;;;;;5036439;28;20037;-73
2022/03/28 07:31:17;;;;;;;28.33;14.50;;;14.30;83.10;;;;;;5036349;28;20505;-74
2022/03/28 07:33:43;;;;;;;42.67;26.77;;;14.30;81.40;;;;;;5036203;28;20067;-73
2022/03/28 07:36:08;;;;;;;30.10;18.17;;;14.40;81.50;;;;;;5036154;28;20029;-73
2022/03/28 07:38:35;;;;;;;29.80;15.38;;;14.70;84.40;;;;;;5036256;28;20106;-73
2022/03/28 07:41:02;;;;;;;23.85;13.63;;;14.70;84.60;;;;;;5036202;28;20151;-73
2022/03/28 07:43:28;;;;;;;21.90;13.20;;;14.80;83.10;;;;;;5036074;28;20039;-74
2022/03/28 07:45:54;;;;;;;19.88;12.30;;;14.80;83.00;;;;;;5036037;28;20160;-73
2022/03/28 07:48:24;;;;;;;19.50;11.93;;;14.90;86.30;;;;;;5040165;28;20044;-73
2022/03/28 07:50:51;;;;;;;17.17;12.30;;;14.80;86.70;;;;;;5055968;28;20064;-74
2022/03/28 07:53:17;;;;;;;21.15;11.98;;;14.90;87.40;;;;;;5055851;28;20041;-71
2022/03/28 07:55:43;;;;;;;20.95;12.02;;;15.10;86.80;;;;;;5055841;28;20568;-74
2022/03/28 07:58:10;;;;;;;21.23;12.05;;;15.00;85.50;;;;;;5055574;28;20140;-69
2022/03/28 08:00:37;;;;;;;18.45;13.15;;;15.20;86.50;;;;;;5055582;28;20067;-72
2022/03/28 08:03:04;;;;;;;25.05;13.63;;;15.20;85.60;;;;;;5055693;28;20049;-74
2022/03/28 08:05:30;;;;;;;20.63;14.18;;;14.80;86.10;;;;;;5055680;28;20041;-73
2022/03/28 08:07:56;;;;;;;17.65;12.45;;;14.80;87.30;;;;;;5055398;28;20053;-73
2022/03/28 08:10:23;;;;;;;23.48;11.77;;;14.90;85.20;;;;;;5055466;28;20091;-75
2022/03/28 08:12:50;;;;;;;23.67;12.88;;;15.30;84.80;;;;;;5055511;28;20040;-73
2022/03/28 08:15:18;;;;;;;21.08;12.07;;;15.20;82.40;;;;;;5055529;28;20794;-71
2022/03/28 08:17:45;;;;;;;18.15;11.80;;;15.30;82.50;;;;;;5055239;28;20481;-77
2022/03/28 08:20:12;;;;;;;20.65;10.98;;;15.30;83.10;;;;;;5055269;28;20535;-74
2022/03/28 08:22:44;;;;;;;22.60;11.48;;;15.60;83.60;;;;;;5055258;28;20631;-72
2022/03/28 08:25:10;;;;;;;20.30;10.60;;;15.80;81.10;;;;;;5055245;28;20377;-75
2022/03/28 08:27:36;;;;;;;18.15;10.60;;;15.80;79.60;;;;;;5054940;28;20052;-74
2022/03/28 08:30:02;;;;;;;19.90;10.98;;;15.80;80.20;;;;;;5055046;28;20025;-75
2022/03/28 08:32:28;;;;;;;28.83;10.10;;;15.70;78.50;;;;;;5054793;28;20146;-74
2022/03/28 08:34:54;;;;;;;18.70;11.38;;;15.80;80.50;;;;;;5055121;28;20524;-73
2022/03/28 08:37:21;;;;;;;15.98;10.25;;;16.10;80.10;;;;;;5054921;28;20050;-73
2022/03/28 08:39:49;;;;;;;25.08;11.57;;;16.20;83.50;;;;;;5054672;28;20033;-68
2022/03/28 08:42:16;;;;;;;15.93;9.48;;;16.40;80.70;;;;;;5053777;28;20084;-74
2022/03/28 08:44:42;;;;;;;19.05;10.48;;;16.40;80.10;;;;;;5037427;28;20033;-73
2022/03/28 08:47:16;;;;;;;17.73;10.90;;;16.60;79.50;;;;;;5034917;28;20045;-72
2022/03/28 08:49:42;;;;;;;19.02;11.32;;;16.80;80.40;;;;;;5050191;28;20041;-73
2022/03/28 08:52:08;;;;;;;16.25;10.82;;;16.80;78.80;;;;;;5054642;28;20045;-71
2022/03/28 08:54:34;;;;;;;20.33;11.15;;;16.80;79.70;;;;;;5047298;28;20045;-68
2022/03/28 08:57:00;;;;;;;17.40;11.88;;;16.70;81.00;;;;;;5034447;28;20460;-69
2022/03/28 08:59:26;;;;;;;20.08;12.38;;;16.90;80.50;;;;;;5034450;28;20374;-73
2022/03/28 09:01:52;;;;;;;22.00;10.50;;;16.90;80.60;;;;;;5034547;28;20051;-73
2022/03/28 09:04:18;;;;;;;17.92;10.88;;;17.10;80.50;;;;;;5034537;28;20037;-70
2022/03/28 09:06:45;;;;;;;15.82;10.18;;;17.40;79.70;;;;;;5034443;28;20073;-70
2022/03/28 09:09:27;;;;;;;21.90;10.77;;;17.50;79.50;;;;;;5034138;28;20068;-73
2022/03/28 09:11:55;;;;;;;23.50;10.02;;;17.70;80.20;;;;;;5034376;28;20485;-73
2022/03/28 09:14:29;;;;;;;21.75;10.85;;;17.50;79.40;;;;;;5034498;28;20052;-73
2022/03/28 09:17:09;;;;;;;18.67;11.20;;;17.90;79.80;;;;;;5034349;28;20049;-73
2022/03/28 09:19:49;;;;;;;22.13;10.47;;;18.00;79.20;;;;;;5033907;28;20037;-73
2022/03/28 09:22:20;;;;;;;22.45;10.00;;;18.30;80.00;;;;;;5034113;28;20763;-73
2022/03/28 09:24:47;;;;;;;16.13;8.60;;;18.40;77.80;;;;;;5034214;28;20034;-73
2022/03/28 09:27:21;;;;;;;20.05;9.45;;;18.40;76.30;;;;;;5034000;28;20045;-73
2022/03/28 09:30:10;;;;;;;18.02;8.95;;;18.40;75.40;;;;;;5033996;28;20044;-73
2022/03/28 09:32:40;;;;;;;14.90;8.88;;;18.30;75.70;;;;;;5033909;28;20045;-74
2022/03/28 09:35:22;;;;;;;19.23;8.77;;;18.40;74.40;;;;;;5033944;28;20044;-73
2022/03/28 09:38:03;;;;;;;13.95;7.55;;;18.50;75.40;;;;;;5034072;28;20095;-72
2022/03/28 09:40:33;;;;;;;;;;;18.60;75.20;;;;;;5034454;28;20034;-73
2022/03/28 09:43:01;;;;;;;22.25;8.65;;;18.70;74.40;;;;;;5033831;28;19910;-70
2022/03/28 09:45:31;;;;;;;24.92;7.88;;;18.80;71.50;;;;;;5032927;28;20033;-73
2022/03/28 09:48:11;;;;;;;20.50;8.02;;;19.10;73.20;;;;;;5033455;28;20195;-73
2022/03/28 09:50:38;;;;;;;11.90;6.63;;;19.30;73.50;;;;;;5033548;28;20128;-73
2022/03/28 09:53:17;;;;;;;16.63;7.15;;;19.20;71.90;;;;;;5033469;28;20041;-74
2022/03/28 09:55:51;;;;;;;17.13;6.90;;;19.10;69.20;;;;;;5015855;28;20033;-73
2022/03/28 09:58:39;;;;;;;14.40;6.57;;;19.40;69.80;;;;;;5033423;28;20033;-74
2022/03/28 10:01:08;;;;;;;12.48;6.35;;;19.70;71.30;;;;;;5033489;28;20045;-73
2022/03/28 10:03:35;;;;;;;19.80;7.30;;;19.80;69.20;;;;;;5033572;28;20065;-74
2022/03/28 10:06:03;;;;;;;11.57;6.43;;;19.70;69.10;;;;;;5033624;28;20073;-74
2022/03/28 10:08:29;;;;;;;18.88;7.43;;;19.60;68.00;;;;;;5033335;28;20049;-73
2022/03/28 10:10:59;;;;;;;17.20;8.98;;;19.90;69.20;;;;;;5033388;28;20045;-73
2022/03/28 10:13:26;;;;;;;20.53;7.87;;;20.20;69.20;;;;;;5033344;28;20041;-73
2022/03/28 10:15:53;;;;;;;18.80;7.88;;;19.80;68.40;;;;;;5033168;28;20261;-73
2022/03/28 10:18:19;;;;;;;16.30;8.02;;;19.60;68.60;;;;;;5033342;28;20084;-74
2022/03/28 10:20:53;;;;;;;26.50;8.30;;;19.90;69.20;;;;;;5033356;28;20041;-74
2022/03/28 10:23:21;;;;;;;21.20;8.27;;;20.30;68.70;;;;;;5033186;28;20060;-73
2022/03/28 10:25:48;;;;;;;20.15;7.65;;;20.00;66.70;;;;;;5033189;28;20048;-74
2022/03/28 10:28:19;;;;;;;16.50;7.35;;;20.00;66.30;;;;;;5033037;28;20064;-74
2022/03/28 10:30:46;;;;;;;19.02;8.38;;;20.10;67.90;;;;;;5033059;28;20041;-74
2022/03/28 10:33:21;;;;;;;17.65;8.45;;;20.30;68.70;;;;;;5032979;28;20041;-74
2022/03/28 10:35:58;;;;;;;16.10;7.30;;;20.70;68.30;;;;;;5032576;28;20075;-74
2022/03/28 10:38:25;;;;;;;16.05;6.00;;;20.70;68.50;;;;;;5033086;28;20127;-74
2022/03/28 10:40:59;;;;;;;20.98;7.82;;;20.50;66.60;;;;;;5031513;28;20129;-74
2022/03/28 10:43:30;;;;;;;13.95;5.95;;;20.40;67.80;;;;;;5032964;28;20065;-74
2022/03/28 10:45:59;;;;;;;19.33;6.30;;;20.50;66.60;;;;;;5032828;28;20113;-74
2022/03/28 10:48:47;;;;;;;18.35;6.70;;;20.40;65.40;;;;;;5032750;28;20053;-72
2022/03/28 10:51:26;;;;;;;17.88;7.13;;;20.80;65.00;;;;;;5032664;28;20136;-73
2022/03/28 10:53:54;;;;;;;14.07;6.75;;;20.70;66.80;;;;;;5032805;28;20037;-74
2022/03/28 10:56:38;;;;;;;14.70;5.57;;;21.00;65.50;;;;;;5031921;28;20049;-74
2022/03/28 10:59:08;;;;;;;14.93;6.70;;;20.40;62.00;;;;;;5034506;28;20040;-74
2022/03/28 11:01:35;;;;;;;13.15;6.18;;;20.40;64.80;;;;;;5036451;28;20057;-74
2022/03/28 11:04:03;;;;;;;16.63;5.82;;;20.20;65.70;;;;;;5036546;28;20072;-74
2022/03/28 11:06:59;;;;;;;11.40;5.60;;;20.40;63.00;;;;;;5036505;28;20056;-70
2022/03/28 11:09:35;;;;;;;17.20;6.50;;;20.80;65.30;;;;;;5036775;28;20044;-76
2022/03/28 11:12:09;;;;;;;15.38;5.90;;;20.70;63.10;;;;;;5036708;28;20041;-68
2022/03/28 11:14:44;;;;;;;9.70;5.70;;;20.80;63.90;;;;;;5036547;28;20044;-74
2022/03/28 11:17:18;;;;;;;15.43;5.70;;;20.20;62.00;;;;;;5036497;28;20572;-72
2022/03/28 11:19:56;;;;;;;12.73;5.40;;;20.00;62.90;;;;;;5036479;28;20047;-74
2022/03/28 11:23:10;;;;;;;17.00;5.68;;;20.30;63.30;;;;;;5036164;28;20414;-71
2022/03/28 11:25:52;;;;;;;13.77;5.88;;;20.80;63.40;;;;;;5009258;28;20042;-74
2022/03/28 11:28:21;;;;;;;18.30;6.53;;;20.70;61.70;;;;;;5036376;28;20053;-73
2022/03/28 11:30:59;;;;;;;12.57;5.63;;;20.60;61.70;;;;;;5036302;28;20582;-74
2022/03/28 11:33:46;;;;;;;17.55;6.40;;;20.80;64.90;;;;;;5018427;28;20056;-74
2022/03/28 11:36:14;;;;;;;14.15;5.95;;;20.80;61.90;;;;;;5036267;28;20537;-75
2022/03/28 11:38:55;;;;;;;16.83;5.40;;;21.00;62.40;;;;;;5036429;28;20048;-73
2022/03/28 11:41:25;;;;;;;14.57;6.22;;;20.90;62.50;;;;;;5036034;28;20037;-68
2022/03/28 11:43:52;;;;;;;20.45;6.25;;;20.70;58.80;;;;;;5036186;28;20041;-73
2022/03/28 11:46:30;;;;;;;16.25;5.90;;;20.70;60.20;;;;;;5036341;28;20033;-74
2022/03/28 11:49:06;;;;;;;16.33;5.93;;;20.50;61.10;;;;;;5036008;28;20052;-74
2022/03/28 11:51:35;;;;;;;15.18;6.43;;;20.50;63.50;;;;;;5035878;28;20038;-74
2022/03/28 11:54:05;;;;;;;18.80;6.50;;;20.50;63.60;;;;;;5035711;28;20049;-71
2022/03/28 11:56:33;;;;;;;16.85;6.60;;;20.20;61.60;;;;;;5035917;28;20061;-69
2022/03/28 11:59:08;;;;;;;18.00;6.05;;;20.40;63.50;;;;;;5035889;28;20045;-70
2022/03/28 12:01:38;;;;;;;17.38;6.22;;;20.60;63.10;;;;;;5035937;28;20033;-74
2022/03/28 12:04:05;;;;;;;18.33;7.25;;;20.50;61.10;;;;;;5035604;28;20385;-74
2022/03/28 12:06:34;;;;;;;20.25;7.03;;;20.40;61.50;;;;;;5035709;28;20042;-74
2022/03/28 12:09:01;;;;;;;18.48;6.30;;;20.30;60.70;;;;;;5035173;28;20499;-73
2022/03/28 12:11:27;;;;;;;17.70;6.75;;;20.40;62.40;;;;;;5017932;28;20455;-74
2022/03/28 12:13:53;;;;;;;19.38;6.60;;;20.30;63.60;;;;;;5035657;28;20071;-74
2022/03/28 12:16:20;;;;;;;24.10;7.20;;;20.20;61.40;;;;;;5035594;28;20087;-69
2022/03/28 12:18:48;;;;;;;16.17;6.50;;;20.40;61.40;;;;;;5035357;28;20040;-70
2022/03/28 12:21:14;;;;;;;22.38;7.15;;;20.60;63.90;;;;;;5035506;28;20401;-74
2022/03/28 12:23:40;;;;;;;13.98;7.15;;;20.50;62.10;;;;;;5035308;28;20037;-74
2022/03/28 12:26:06;;;;;;;14.40;7.40;;;20.50;62.10;;;;;;5035331;28;20048;-74
2022/03/28 12:28:34;;;;;;;17.13;8.13;;;20.20;60.80;;;;;;5035228;28;20060;-73
2022/03/28 12:31:03;;;;;;;17.45;7.28;;;20.30;62.30;;;;;;5035299;28;20040;-74
2022/03/28 12:33:39;;;;;;;16.10;7.78;;;20.40;61.70;;;;;;5035229;28;20128;-74
2022/03/28 12:36:08;;;;;;;16.63;7.43;;;20.40;63.70;;;;;;5035287;28;20120;-74
2022/03/28 12:38:40;;;;;;;12.95;6.97;;;20.50;63.00;;;;;;5035151;28;20065;-74